Time;durP1;ratioP1;P1;durP2;ratioP2;P2;SDS_P1;SDS_P2;PMS_P1;PMS_P2;Temp;Humidity;BMP_temperature;BMP_pressure;BME280_temperature;BME280_humidity;BME280_pressure;Samples;Min_cycle;Max_cycle;Signal;HPM_P1;HPM_P2
2021/05/08 00:30:32;;;;;;;4.95;2.95;;;;;;;9.49;82.73;96778.23;1497206;89;21192;-91
2021/05/08 00:34:03;;;;;;;5.45;3.47;;;;;;;9.51;82.47;96779.77;1646921;82;21267;-87
2021/05/08 00:52:16;;;;;;;4.25;2.98;;;;;;;9.94;81.96;96791.22;1612747;83;21261;-87
2021/05/08 00:56:05;;;;;;;6.03;2.75;;;;;;;9.99;81.78;96795.61;1609000;86;21244;-89
2021/05/08 01:12:59;;;;;;;2.55;1.80;;;;;;;9.83;81.49;96820.22;1586057;86;21172;-86
2021/05/08 01:20:12;;;;;;;5.22;3.12;;;;;;;9.84;81.69;96827.16;1561447;88;21151;-87
2021/05/08 01:23:46;;;;;;;5.28;2.50;;;;;;;9.84;81.91;96824.53;1519253;90;21281;-87
2021/05/08 01:38:09;;;;;;;4.08;2.72;;;;;;;9.95;79.53;96845.55;1427066;97;21384;-87
2021/05/08 01:41:33;;;;;;;3.92;2.90;;;;;;;10.03;82.09;96848.86;1438833;98;21296;-88
2021/05/08 01:54:03;;;;;;;3.83;3.02;;;;;;;9.95;81.95;96863.13;1564804;87;21184;-90
2021/05/08 02:01:03;;;;;;;10.03;5.53;;;;;;;9.73;83.25;96885.09;1646433;84;21146;-89
2021/05/08 02:04:29;;;;;;;6.05;3.70;;;;;;;8.93;83.40;96785.73;1678592;82;21175;-87
2021/05/08 02:07:50;;;;;;;4.20;3.70;;;;;;;9.50;82.86;96888.61;1706114;82;21138;-88
2021/05/08 02:11:34;;;;;;;4.78;3.98;;;;;;;9.45;83.36;96883.34;1703253;81;21357;-87
2021/05/08 02:18:26;;;;;;;2.60;1.72;;;;;;;9.31;83.14;96919.95;1657408;79;21209;-84
2021/05/08 02:29:26;;;;;;;1.95;1.60;;;;;;;8.43;81.25;96985.20;1602625;84;21313;-84
2021/05/08 02:43:50;;;;;;;2.62;1.40;;;;;;;7.68;79.90;97002.76;1789009;77;22465;-88
2021/05/08 02:47:28;;;;;;;2.50;1.62;;;;;;;7.54;80.23;97005.03;1740164;80;21163;-89
2021/05/08 02:50:38;;;;;;;3.10;1.80;;;;;;;7.41;78.87;97006.84;1706610;83;21240;-88
2021/05/08 02:54:10;;;;;;;5.10;2.55;;;;;;;7.19;79.10;97023.55;1679853;84;21290;-89
2021/05/08 03:01:18;;;;;;;5.10;2.72;;;;;;;7.08;81.32;97013.42;1657738;84;21148;-87
2021/05/08 03:05:21;;;;;;;3.92;2.40;;;;;;;7.07;80.83;97023.53;1647332;81;21181;-88
2021/05/08 03:08:55;;;;;;;3.30;2.55;;;;;;;7.09;81.45;97036.08;1823894;79;22993;-89
2021/05/08 03:11:51;;;;;;;6.90;2.75;;;;;;;7.03;81.84;97034.70;1589910;90;21192;-88
2021/05/08 03:15:15;;;;;;;5.20;2.52;;;;;;;6.99;81.88;97039.31;1612595;88;21148;-88
2021/05/08 03:22:10;;;;;;;5.55;2.60;;;;;;;6.97;80.66;97040.36;1619642;87;20219;-87
2021/05/08 03:25:19;;;;;;;6.67;3.33;;;;;;;6.90;80.67;97053.51;1619417;89;21171;-88
2021/05/08 03:28:37;;;;;;;2.70;2.40;;;;;;;6.88;81.17;97067.55;1593572;79;21176;-87
2021/05/08 03:32:09;;;;;;;6.65;3.37;;;;;;;6.86;82.04;97065.98;1710020;80;21254;-87
2021/05/08 03:36:01;;;;;;;6.42;2.60;;;;;;;6.87;80.04;97076.34;1702951;80;21131;-85
2021/05/08 03:39:39;;;;;;;3.22;2.92;;;;;;;6.91;81.64;97083.53;1732508;79;21153;-86
2021/05/08 03:43:13;;;;;;;3.83;3.15;;;;;;;6.98;80.99;97097.08;1695395;82;21192;-87
2021/05/08 03:46:50;;;;;;;3.67;3.05;;;;;;;7.11;82.17;97101.86;1708506;81;21156;-87
2021/05/08 03:50:29;;;;;;;3.77;3.33;;;;;;;7.24;81.96;97115.00;1624149;84;21173;-87
2021/05/08 03:53:46;;;;;;;3.35;2.87;;;;;;;7.39;82.39;97120.17;1599242;87;21276;-88
2021/05/08 03:57:27;;;;;;;4.60;2.95;;;;;;;7.47;81.46;97116.08;1618617;88;21328;-84
2021/05/08 04:00:53;;;;;;;3.50;3.15;;;;;;;7.64;80.96;97130.69;1628873;85;21280;-87
2021/05/08 04:04:20;;;;;;;4.15;3.30;;;;;;;7.80;80.80;97136.19;1610976;87;21335;-86
2021/05/08 04:07:38;;;;;;;5.25;3.08;;;;;;;7.80;80.80;97136.19;1605775;88;21292;-87
2021/05/08 04:11:02;;;;;;;5.10;3.25;;;;;;;7.95;80.55;97138.23;1658605;82;21175;-87
2021/05/08 04:14:15;;;;;;;4.90;3.30;;;;;;;8.13;82.75;97130.88;1658603;82;21176;-88
2021/05/08 04:17:23;;;;;;;18.37;10.65;;;;;;;8.44;80.50;97126.94;1818561;78;23051;-86
2021/05/08 04:24:58;;;;;;;4.15;3.60;;;;;;;9.56;80.92;97128.55;1788719;78;21293;-89
2021/05/08 04:28:08;;;;;;;7.35;5.55;;;;;;;10.34;77.55;97122.97;1772871;80;21129;-88
2021/05/08 04:31:14;;;;;;;8.80;6.03;;;;;;;11.20;77.75;97129.73;1776930;80;21120;-86
2021/05/08 04:33:55;;;;;;;4.35;3.77;;;;;;;12.03;76.46;97131.22;1769612;80;21123;-88
2021/05/08 04:36:23;;;;;;;3.42;3.05;;;;;;;12.71;78.30;97140.36;1782471;79;21322;-88
2021/05/08 04:38:52;;;;;;;6.40;2.50;;;;;;;13.26;75.27;97140.35;1768938;79;21754;-87
2021/05/08 04:41:19;;;;;;;3.55;3.00;;;;;;;13.86;74.03;97142.01;1778688;79;21220;-87
2021/05/08 04:43:47;;;;;;;2.75;2.15;;;;;;;14.41;73.25;97143.08;1782054;79;21184;-86
2021/05/08 04:46:16;;;;;;;5.62;2.50;;;;;;;14.81;71.65;97152.05;1792986;80;21141;-87
2021/05/08 04:48:43;;;;;;;3.80;2.55;;;;;;;15.10;68.42;97152.36;1782219;80;21152;-86
2021/05/08 04:51:10;;;;;;;3.33;1.77;;;;;;;15.49;65.45;97164.50;1792970;79;21149;-86
2021/05/08 04:53:38;;;;;;;10.53;2.10;;;;;;;15.75;73.85;97165.88;1774949;79;21273;-85
2021/05/08 04:56:05;;;;;;;3.10;2.15;;;;;;;15.96;75.49;97177.18;1775239;79;21134;-85
2021/05/08 04:58:32;;;;;;;4.42;1.80;;;;;;;16.18;68.19;97177.16;1773453;79;21153;-84
2021/05/08 05:01:00;;;;;;;2.58;1.72;;;;;;;16.44;69.92;97172.31;1775963;79;21098;-83
2021/05/08 05:03:27;;;;;;;3.95;2.10;;;;;;;16.70;56.77;97182.41;1770827;79;21159;-86
2021/05/08 05:05:54;;;;;;;2.00;1.65;;;;;;;17.02;59.53;97185.41;1773540;79;21167;-84
2021/05/08 05:08:22;;;;;;;2.58;1.70;;;;;;;17.25;61.35;97184.78;1768880;79;21725;-85
2021/05/08 05:10:51;;;;;;;2.62;1.75;;;;;;;17.33;64.54;97190.13;1790393;79;21558;-83
2021/05/08 05:13:19;;;;;;;2.40;1.90;;;;;;;17.40;55.71;97196.97;1772272;79;21713;-80
2021/05/08 05:15:47;;;;;;;5.35;1.80;;;;;;;17.56;66.98;97202.31;1785460;79;21574;-80
2021/05/08 05:18:14;;;;;;;2.02;1.60;;;;;;;17.54;61.25;97206.14;1782749;79;21185;-79
2021/05/08 05:20:43;;;;;;;2.33;1.80;;;;;;;17.52;58.31;97202.33;1781589;79;21611;-80
2021/05/08 05:23:10;;;;;;;3.95;1.75;;;;;;;17.77;62.75;97201.00;1793377;79;21231;-80
2021/05/08 05:25:38;;;;;;;2.40;1.70;;;;;;;17.69;48.98;97212.48;1782103;79;21188;-82
2021/05/08 05:28:22;;;;;;;3.22;1.87;;;;;;;17.59;54.98;97209.13;1776732;79;21169;-84
2021/05/08 05:30:51;;;;;;;5.80;1.90;;;;;;;17.64;57.37;97211.64;1775254;79;21175;-81
2021/05/08 05:33:19;;;;;;;5.30;1.87;;;;;;;17.90;58.56;97212.49;1786995;79;21121;-83
2021/05/08 05:35:49;;;;;;;2.52;1.90;;;;;;;18.17;53.72;97216.69;1788180;79;21572;-82
2021/05/08 05:38:16;;;;;;;2.75;1.98;;;;;;;18.27;52.11;97216.50;1783894;79;21705;-81
2021/05/08 05:40:45;;;;;;;3.87;1.98;;;;;;;18.16;49.06;97214.17;1782366;79;21185;-83
2021/05/08 05:43:13;;;;;;;2.50;2.02;;;;;;;18.11;50.07;97221.34;1766752;79;21187;-81
2021/05/08 05:45:40;;;;;;;2.98;1.67;;;;;;;17.95;52.27;97226.99;1792999;79;21133;-81
2021/05/08 05:48:08;;;;;;;3.02;2.22;;;;;;;17.94;49.90;97233.33;1772131;79;21513;-82
2021/05/08 05:50:41;;;;;;;4.95;2.17;;;;;;;17.82;52.66;97240.48;1781671;78;21182;-84
2021/05/08 05:53:10;;;;;;;3.37;1.85;;;;;;;17.37;50.46;97243.91;1784894;79;21200;-82
2021/05/08 05:55:41;;;;;;;3.65;2.12;;;;;;;17.08;50.35;97240.67;1782540;79;21139;-82
2021/05/08 05:58:08;;;;;;;3.42;2.58;;;;;;;16.70;49.49;97252.11;1768999;79;21151;-82
2021/05/08 06:00:37;;;;;;;3.87;2.22;;;;;;;16.48;51.44;97263.62;1790586;79;21160;-82
2021/05/08 06:03:05;;;;;;;7.95;2.55;;;;;;;16.26;51.71;97254.84;1783211;79;21162;-82
2021/05/08 06:05:32;;;;;;;3.77;2.10;;;;;;;16.35;50.63;97256.56;1761592;78;21156;-82
2021/05/08 06:08:00;;;;;;;4.62;2.00;;;;;;;16.39;51.64;97252.58;1780094;79;21155;-83
2021/05/08 06:10:34;;;;;;;5.62;2.30;;;;;;;16.63;51.24;97233.78;1789181;79;21149;-83
2021/05/08 06:13:02;;;;;;;4.33;1.87;;;;;;;17.20;51.13;97257.19;1799080;79;21180;-82
2021/05/08 06:15:29;;;;;;;8.10;2.60;;;;;;;17.45;47.82;97262.09;1775527;80;21196;-85
2021/05/08 06:17:57;;;;;;;3.77;1.82;;;;;;;17.83;49.42;97258.97;1780891;79;21803;-83
2021/05/08 06:20:24;;;;;;;2.72;2.02;;;;;;;18.14;50.04;97258.36;1793573;79;21210;-84
2021/05/08 06:22:51;;;;;;;6.47;2.70;;;;;;;18.41;48.42;97267.86;1800889;79;21168;-83
2021/05/08 06:25:20;;;;;;;2.98;2.20;;;;;;;18.90;46.86;97264.72;1776634;79;21175;-83
2021/05/08 06:27:48;;;;;;;5.65;1.98;;;;;;;19.19;46.13;97266.83;1764372;81;21298;-83
2021/05/08 06:30:16;;;;;;;2.92;1.75;;;;;;;19.53;45.84;97272.84;1756783;81;21167;-82
2021/05/08 06:32:43;;;;;;;2.47;1.57;;;;;;;19.62;40.51;97274.45;1761208;80;21223;-82
2021/05/08 06:35:10;;;;;;;6.47;1.95;;;;;;;19.51;44.30;97280.20;1756760;81;21191;-81
2021/05/08 06:37:39;;;;;;;9.70;1.95;;;;;;;19.46;39.12;97279.87;1779151;78;21179;-83
2021/05/08 06:40:07;;;;;;;2.77;2.10;;;;;;;19.64;44.52;97275.09;1785300;79;21211;-82
2021/05/08 06:42:35;;;;;;;3.45;1.90;;;;;;;19.67;44.38;97277.94;1771832;79;21148;-83
2021/05/08 06:45:03;;;;;;;4.72;2.10;;;;;;;19.45;42.69;97284.41;1791351;79;21151;-82
2021/05/08 06:47:30;;;;;;;3.25;1.80;;;;;;;19.37;42.84;97282.26;1779956;79;21584;-82
2021/05/08 06:49:59;;;;;;;4.60;1.60;;;;;;;19.49;42.67;97281.69;1751555;79;21511;-84
2021/05/08 06:52:26;;;;;;;2.17;1.45;;;;;;;19.45;39.86;97287.08;1775866;78;21127;-83
2021/05/08 06:54:53;;;;;;;3.98;1.47;;;;;;;19.16;37.09;97284.53;1759140;80;21180;-83
2021/05/08 06:57:25;;;;;;;6.15;1.87;;;;;;;18.80;41.47;97285.44;1786684;76;21153;-81
2021/05/08 06:59:53;;;;;;;2.85;1.67;;;;;;;18.83;41.75;97294.45;1683737;83;21208;-81
2021/05/08 07:02:22;;;;;;;3.50;1.67;;;;;;;18.61;39.58;97294.67;1710739;83;21183;-83
2021/05/08 07:04:49;;;;;;;3.42;2.02;;;;;;;18.42;40.64;97302.84;1720142;83;21163;-83
2021/05/08 07:07:16;;;;;;;2.70;1.65;;;;;;;18.44;41.29;97300.52;1749405;80;21232;-84
2021/05/08 07:09:43;;;;;;;3.37;1.60;;;;;;;18.51;42.09;97310.87;1743426;80;21178;-84
2021/05/08 07:12:11;;;;;;;4.08;1.57;;;;;;;18.58;40.99;97307.86;1749288;80;21148;-84
2021/05/08 07:14:38;;;;;;;4.67;1.40;;;;;;;18.64;40.06;97317.85;1755411;80;21161;-83
2021/05/08 07:17:06;;;;;;;2.70;1.60;;;;;;;18.87;38.08;97323.31;1759875;80;21188;-82
2021/05/08 07:19:33;;;;;;;4.65;1.40;;;;;;;18.99;38.40;97319.80;1749435;80;21151;-83
2021/05/08 07:22:02;;;;;;;2.85;1.55;;;;;;;19.06;40.28;97307.94;1744874;80;21187;-84
2021/05/08 07:24:29;;;;;;;5.90;1.82;;;;;;;19.06;38.12;97311.95;1733539;80;21131;-84
2021/05/08 07:26:57;;;;;;;3.47;1.50;;;;;;;19.19;38.93;97316.25;1744612;80;21192;-83
2021/05/08 07:29:25;;;;;;;3.85;1.60;;;;;;;19.34;40.51;97316.37;1769681;79;21160;-83
2021/05/08 07:31:53;;;;;;;2.67;1.60;;;;;;;19.26;40.10;97319.56;1700371;83;21150;-83
2021/05/08 07:34:20;;;;;;;2.87;1.35;;;;;;;19.08;34.98;97305.94;1706942;81;21190;-82
2021/05/08 07:36:47;;;;;;;3.65;1.70;;;;;;;19.12;33.82;97305.08;1698224;82;21166;-83
2021/05/08 07:39:14;;;;;;;4.83;1.90;;;;;;;18.94;38.87;97318.65;1696927;83;21582;-86
2021/05/08 07:41:42;;;;;;;5.33;1.40;;;;;;;18.98;35.34;97310.64;1702379;83;21187;-85
2021/05/08 07:44:09;;;;;;;3.00;2.05;;;;;;;18.82;29.84;97315.48;1701081;83;21147;-82
2021/05/08 07:46:36;;;;;;;12.58;1.80;;;;;;;18.48;32.93;97317.87;1753289;80;21183;-84
2021/05/08 07:49:03;;;;;;;5.12;2.00;;;;;;;18.12;31.65;97326.22;1699711;83;21191;-83
2021/05/08 07:51:31;;;;;;;5.65;1.47;;;;;;;18.18;37.60;97321.54;1697124;83;21171;-83
2021/05/08 07:54:00;;;;;;;3.55;1.40;;;;;;;18.30;38.55;97326.89;1692683;83;21227;-83
2021/05/08 07:56:27;;;;;;;4.53;1.72;;;;;;;18.41;37.41;97331.91;1695639;83;21586;-82
2021/05/08 07:58:54;;;;;;;5.28;1.50;;;;;;;18.37;35.05;97333.22;1681782;83;21185;-82
2021/05/08 08:01:22;;;;;;;2.40;1.50;;;;;;;18.05;37.90;97348.19;1661133;84;21204;-83
2021/05/08 08:03:49;;;;;;;2.40;1.50;;;;;;;17.88;38.56;97342.47;1664484;85;21605;-87
2021/05/08 08:06:16;;;;;;;3.40;1.20;;;;;;;17.93;38.89;97345.50;1659741;85;21188;-86
2021/05/08 08:08:44;;;;;;;3.87;1.50;;;;;;;18.09;37.86;97350.88;1673092;84;21194;-87
2021/05/08 08:11:11;;;;;;;2.02;1.40;;;;;;;18.18;34.54;97354.89;1712132;82;21192;-87
2021/05/08 08:13:40;;;;;;;5.85;1.42;;;;;;;18.20;35.49;97358.23;1704850;83;21179;-87
2021/05/08 08:16:07;;;;;;;1.70;0.90;;;;;;;18.19;38.95;97353.89;1705283;83;21641;-87
2021/05/08 08:18:34;;;;;;;2.33;1.20;;;;;;;18.23;39.41;97361.91;1700611;83;21190;-87
2021/05/08 08:21:03;;;;;;;2.85;1.35;;;;;;;17.92;34.48;97367.31;1708077;83;21572;-89
2021/05/08 08:23:31;;;;;;;3.00;1.12;;;;;;;17.78;37.95;97370.11;1721518;82;21170;-85
2021/05/08 08:25:58;;;;;;;2.40;1.30;;;;;;;17.72;37.31;97372.09;1701904;83;21158;-86
2021/05/08 08:28:25;;;;;;;1.80;1.30;;;;;;;17.69;38.39;97384.92;1702089;83;21166;-88
2021/05/08 08:30:53;;;;;;;3.08;1.10;;;;;;;17.80;36.50;97384.11;1669972;84;21167;-86
2021/05/08 08:33:20;;;;;;;3.02;1.07;;;;;;;17.80;30.78;97380.63;1706330;83;21182;-87
2021/05/08 08:35:47;;;;;;;2.45;1.20;;;;;;;17.58;31.47;97399.38;1703497;83;21179;-86
2021/05/08 08:38:15;;;;;;;3.52;1.10;;;;;;;17.28;33.68;97389.58;1701299;83;21719;-85
2021/05/08 08:40:44;;;;;;;5.28;1.25;;;;;;;17.13;34.78;97393.32;1687636;83;21578;-86
2021/05/08 08:43:12;;;;;;;3.83;1.00;;;;;;;17.09;33.52;97394.61;1687606;84;21168;-86
2021/05/08 08:45:40;;;;;;;2.02;0.82;;;;;;;16.96;34.67;97383.91;1689225;83;21182;-87
2021/05/08 08:48:08;;;;;;;2.12;1.02;;;;;;;16.76;31.73;97392.53;1682282;83;21188;-86
2021/05/08 08:50:37;;;;;;;1.50;1.00;;;;;;;16.64;32.94;97402.60;1694851;82;21621;-86
2021/05/08 08:53:06;;;;;;;4.12;0.95;;;;;;;16.46;32.60;97393.80;1668237;83;21144;-87
2021/05/08 08:55:36;;;;;;;2.40;1.15;;;;;;;16.46;35.79;97401.30;1692827;84;21611;-81
2021/05/08 08:58:05;;;;;;;1.40;0.90;;;;;;;16.51;34.34;97406.98;1740206;80;21163;-84
2021/05/08 09:00:32;;;;;;;2.47;0.90;;;;;;;16.20;34.80;97383.43;1721281;82;21187;-84
2021/05/08 09:03:02;;;;;;;2.83;1.27;;;;;;;15.87;30.87;97414.19;1729306;81;21640;-82
2021/05/08 09:05:31;;;;;;;4.10;1.12;;;;;;;15.54;31.78;97398.66;1705857;83;21184;-82
2021/05/08 09:08:01;;;;;;;1.12;0.90;;;;;;;15.35;32.02;97392.93;1703898;83;21153;-84
2021/05/08 09:10:31;;;;;;;6.37;1.00;;;;;;;15.17;34.13;97414.59;1704286;83;21152;-83
2021/05/08 09:13:01;;;;;;;1.80;1.02;;;;;;;15.27;35.70;97412.23;1699444;83;21598;-83
2021/05/08 09:15:37;;;;;;;3.80;1.20;;;;;;;15.26;35.23;97417.70;1696415;83;21147;-82
2021/05/08 09:18:06;;;;;;;;;;;;;;;14.98;34.32;97418.97;1703345;83;21647;-83
2021/05/08 09:20:50;;;;;;;3.52;1.50;;;;;;;14.97;31.42;97408.86;1660411;84;20155;-85
2021/05/08 09:23:27;;;;;;;1.72;1.20;;;;;;;14.87;35.42;97412.02;1682873;83;21192;-86
2021/05/08 09:26:00;;;;;;;;;;;;;;;14.83;34.21;97414.12;1684882;83;21156;-85
2021/05/08 09:28:29;;;;;;;9.45;1.17;;;;;;;14.87;34.48;97417.80;1684581;84;20175;-86
2021/05/08 09:30:58;;;;;;;1.70;0.90;;;;;;;14.95;35.20;97417.45;1684195;84;21184;-83
2021/05/08 09:33:27;;;;;;;2.22;1.22;;;;;;;15.00;35.83;97410.37;1680478;84;21592;-85
2021/05/08 09:36:02;;;;;;;2.77;1.20;;;;;;;14.91;35.33;97415.22;1700669;83;21132;-85
2021/05/08 09:38:37;;;;;;;1.87;0.95;;;;;;;14.82;35.16;97419.08;1691837;83;21147;-85
2021/05/08 09:41:07;;;;;;;2.10;1.30;;;;;;;14.67;36.66;97409.39;1672760;84;21188;-84
2021/05/08 09:43:37;;;;;;;4.05;1.12;;;;;;;14.67;37.28;97433.27;1694846;83;21178;-84
2021/05/08 09:46:06;;;;;;;1.82;1.05;;;;;;;14.65;37.54;97423.25;1687048;82;21609;-80
2021/05/08 09:48:36;;;;;;;3.70;1.50;;;;;;;14.72;37.53;97432.84;1694158;83;21159;-81
2021/05/08 09:51:27;;;;;;;4.12;1.52;;;;;;;14.78;35.85;97432.77;1701140;83;21161;-84
2021/05/08 09:54:12;;;;;;;2.50;1.22;;;;;;;14.74;36.88;97430.04;1697307;82;21140;-82
2021/05/08 09:56:47;;;;;;;2.25;1.30;;;;;;;14.68;36.81;97432.30;1676729;85;21178;-82
2021/05/08 09:59:36;;;;;;;3.17;1.30;;;;;;;14.42;37.74;97446.56;1698264;83;21633;-82
2021/05/08 10:02:10;;;;;;;4.30;1.12;;;;;;;14.16;35.47;97427.23;1682219;83;21173;-83
2021/05/08 10:04:44;;;;;;;2.95;1.10;;;;;;;14.15;37.77;97432.67;1680337;83;21180;-80
2021/05/08 10:07:19;;;;;;;2.72;0.98;;;;;;;14.25;37.78;97434.00;1687295;84;21624;-81
2021/05/08 10:09:53;;;;;;;3.22;1.12;;;;;;;14.34;36.71;97431.34;1682477;84;21209;-81
2021/05/08 10:12:24;;;;;;;5.05;1.20;;;;;;;14.45;37.12;97438.81;1697320;82;21618;-83
2021/05/08 10:14:54;;;;;;;1.77;0.98;;;;;;;14.56;37.73;97432.55;1665069;83;21245;-80
2021/05/08 10:17:24;;;;;;;3.72;1.00;;;;;;;14.45;33.99;97449.42;1685247;83;21628;-81
2021/05/08 10:20:06;;;;;;;3.40;1.00;;;;;;;14.32;36.12;97440.41;1703735;83;21207;-79
2021/05/08 10:22:45;;;;;;;1.45;1.10;;;;;;;14.14;36.17;97440.27;1708328;83;21190;-83
2021/05/08 10:25:12;;;;;;;1.10;0.80;;;;;;;14.05;36.12;97443.24;1704239;83;21192;-83
2021/05/08 10:27:40;;;;;;;2.90;1.22;;;;;;;14.22;35.89;97451.02;1694914;83;21243;-81
2021/05/08 10:30:33;;;;;;;2.65;1.47;;;;;;;14.19;36.04;97444.66;1715068;82;21180;-81
2021/05/08 10:33:10;;;;;;;4.00;1.37;;;;;;;14.34;36.02;97442.45;1673399;84;21182;-87
2021/05/08 10:35:47;;;;;;;3.87;1.20;;;;;;;14.52;36.65;97439.95;1680109;84;21594;-86
2021/05/08 10:38:27;;;;;;;3.22;1.10;;;;;;;14.58;36.22;97446.02;1739830;81;21590;-83
2021/05/08 10:41:02;;;;;;;2.20;1.00;;;;;;;14.44;36.01;97447.74;1736626;81;21254;-87
2021/05/08 10:43:43;;;;;;;1.60;0.95;;;;;;;14.34;35.33;97459.18;1700040;83;21155;-84
2021/05/08 10:46:14;;;;;;;4.28;1.02;;;;;;;14.22;34.36;97444.39;1698972;82;21226;-87
2021/05/08 10:49:10;;;;;;;2.15;1.20;;;;;;;14.16;33.80;97459.03;1701884;83;21186;-87
2021/05/08 10:51:59;;;;;;;4.35;1.05;;;;;;;14.00;34.44;97451.61;1741429;80;21148;-85
2021/05/08 10:54:45;;;;;;;2.92;0.90;;;;;;;13.76;34.76;97456.43;1724052;81;21164;-85
2021/05/08 10:57:19;;;;;;;1.17;0.60;;;;;;;13.86;34.59;97453.33;1686309;83;21142;-87
2021/05/08 11:00:08;;;;;;;2.12;1.07;;;;;;;13.92;34.10;97456.75;1702770;83;21201;-86
2021/05/08 11:02:47;;;;;;;1.52;1.05;;;;;;;13.86;34.92;97452.00;1685914;84;21584;-83
2021/05/08 11:05:31;;;;;;;1.75;1.35;;;;;;;13.73;34.69;97450.42;1683942;83;21168;-84
2021/05/08 11:07:58;;;;;;;4.42;1.98;;;;;;;13.61;34.70;97456.78;1659205;84;21602;-86
2021/05/08 11:10:37;;;;;;;3.20;1.67;;;;;;;13.43;33.70;97467.17;1692027;83;21154;-87
2021/05/08 11:13:16;;;;;;;5.15;1.50;;;;;;;13.26;35.53;97464.14;1726415;82;21141;-84
2021/05/08 11:15:55;;;;;;;2.08;1.10;;;;;;;13.26;36.18;97460.17;1737278;82;21161;-87
2021/05/08 11:18:44;;;;;;;2.75;1.12;;;;;;;13.36;35.70;97460.20;1738211;81;21154;-85
2021/05/08 11:21:19;;;;;;;5.80;1.45;;;;;;;13.41;35.31;97461.98;1745624;80;21107;-87
2021/05/08 11:24:04;;;;;;;2.05;1.30;;;;;;;13.49;35.81;97463.98;1742701;80;21512;-84
2021/05/08 11:26:40;;;;;;;1.87;0.85;;;;;;;13.42;35.86;97465.49;1698797;82;21158;-82
2021/05/08 11:32:01;;;;;;;1.62;0.95;;;;;;;13.54;34.00;97469.73;1803704;77;22644;-84
2021/05/08 11:34:34;;;;;;;2.58;0.90;;;;;;;13.54;34.95;97461.80;1806970;78;21156;-84
2021/05/08 11:37:14;;;;;;;1.40;0.88;;;;;;;13.57;33.21;97465.48;1794841;79;21130;-85
2021/05/08 11:39:47;;;;;;;1.37;0.88;;;;;;;13.41;34.91;97469.94;1802935;78;21162;-83
2021/05/08 11:42:17;;;;;;;2.10;0.90;;;;;;;13.47;34.60;97470.39;1760176;81;21171;-85
2021/05/08 11:44:49;;;;;;;1.37;1.00;;;;;;;13.52;34.03;97469.50;1759941;81;21711;-82
2021/05/08 11:47:31;;;;;;;3.35;0.88;;;;;;;13.60;35.94;97464.37;1759097;81;21170;-85
2021/05/08 11:50:13;;;;;;;2.10;1.12;;;;;;;13.71;34.25;97460.30;1753654;81;21163;-86
2021/05/08 11:52:47;;;;;;;1.47;0.75;;;;;;;13.81;34.84;97460.83;1766040;81;21155;-84
2021/05/08 11:55:18;;;;;;;0.93;0.80;;;;;;;13.81;35.46;97459.50;1706474;83;21625;-86
2021/05/08 11:57:55;;;;;;;1.22;0.80;;;;;;;13.70;33.25;97459.95;1702069;83;21340;-86
2021/05/08 12:00:25;;;;;;;1.00;0.62;;;;;;;13.66;34.06;97455.05;1715666;83;21589;-87
2021/05/08 12:03:13;;;;;;;5.05;2.40;;;;;;;13.70;31.17;97465.75;1810152;79;22666;-87
2021/05/08 12:05:47;;;;;;;0.88;0.75;;;;;;;13.71;33.23;97452.36;1805699;78;21537;-83
2021/05/08 12:08:21;;;;;;;1.52;0.90;;;;;;;13.76;32.08;97452.45;1798111;78;21107;-86
2021/05/08 12:10:51;;;;;;;1.42;0.93;;;;;;;13.77;33.26;97451.48;1793528;80;21124;-84
2021/05/08 12:13:28;;;;;;;3.20;1.30;;;;;;;13.78;32.57;97441.24;1799791;78;21743;-82
2021/05/08 12:16:03;;;;;;;1.37;0.72;;;;;;;13.83;34.24;97454.91;1805324;78;21557;-82
2021/05/08 12:18:42;;;;;;;1.42;0.80;;;;;;;14.01;32.29;97447.98;1806793;79;23065;-85
2021/05/08 12:21:19;;;;;;;1.52;0.95;;;;;;;14.04;32.89;97447.72;1819190;77;23048;-82
2021/05/08 12:23:56;;;;;;;3.33;1.10;;;;;;;14.00;33.03;97454.25;1833214;76;38510;-85
2021/05/08 12:26:32;;;;;;;4.37;1.40;;;;;;;14.15;35.08;97448.08;1833376;76;28088;-86
2021/05/08 12:29:09;;;;;;;1.92;1.00;;;;;;;14.31;32.72;97446.22;1833631;76;28099;-87
2021/05/08 12:31:46;;;;;;;2.72;1.00;;;;;;;14.42;34.50;97457.67;1808906;77;28180;-86
2021/05/08 12:34:24;;;;;;;2.95;1.10;;;;;;;14.50;34.11;97445.88;1824508;77;23460;-87
2021/05/08 12:37:04;;;;;;;4.67;1.00;;;;;;;14.45;33.08;97443.64;1824586;77;23014;-82
2021/05/08 12:39:45;;;;;;;3.92;0.90;;;;;;;14.25;31.82;97433.50;1820302;79;23398;-84
2021/05/08 12:42:27;;;;;;;1.62;0.80;;;;;;;14.10;30.88;97440.19;1824506;77;23018;-86
2021/05/08 12:45:07;;;;;;;3.50;1.37;;;;;;;13.98;30.79;97428.38;1848391;77;23027;-85
2021/05/08 12:47:47;;;;;;;1.67;1.10;;;;;;;13.78;30.62;97443.89;1824446;77;23469;-84
2021/05/08 12:53:10;;;;;;;2.90;1.07;;;;;;;13.76;32.40;97427.29;1808754;77;28112;-84
2021/05/08 12:56:02;;;;;;;2.30;1.10;;;;;;;13.89;33.34;97439.31;1833362;76;38425;-85
2021/05/08 12:58:39;;;;;;;3.65;1.20;;;;;;;13.98;32.96;97428.88;1824492;77;23014;-84
2021/05/08 13:01:26;;;;;;;2.58;1.20;;;;;;;13.89;33.43;97434.48;1849240;76;22323;-84
2021/05/08 13:04:04;;;;;;;4.00;1.27;;;;;;;13.89;32.06;97435.81;1834901;77;28127;-84
2021/05/08 13:06:43;;;;;;;1.87;1.10;;;;;;;14.06;34.50;97425.05;1824412;77;23014;-87
2021/05/08 13:09:21;;;;;;;1.55;0.80;;;;;;;13.96;32.83;97430.34;1824282;77;23019;-86
2021/05/08 13:12:14;;;;;;;1.67;1.10;;;;;;;13.88;33.34;97423.53;1780005;79;22781;-85
2021/05/08 13:15:12;;;;;;;2.58;1.10;;;;;;;13.78;33.70;97426.67;1808750;77;28548;-85
2021/05/08 13:17:52;;;;;;;3.37;1.00;;;;;;;13.73;33.59;97442.47;1850795;77;23461;-87
2021/05/08 13:20:37;;;;;;;2.37;1.07;;;;;;;13.72;35.08;97429.38;1824558;77;22234;-85
2021/05/08 13:23:16;;;;;;;11.38;1.07;;;;;;;13.76;35.24;97442.69;1850873;77;23044;-86
2021/05/08 13:25:52;;;;;;;1.87;1.10;;;;;;;13.82;35.26;97443.48;1833390;76;32903;-86
2021/05/08 13:28:29;;;;;;;3.87;1.07;;;;;;;13.93;34.42;97437.23;1833456;76;28149;-88
2021/05/08 13:31:06;;;;;;;2.72;1.00;;;;;;;13.94;33.81;97437.58;1833458;76;27913;-86
2021/05/08 13:33:43;;;;;;;1.80;1.02;;;;;;;14.01;33.47;97455.94;1802071;79;28007;-86
2021/05/08 13:36:20;;;;;;;3.33;0.98;;;;;;;14.05;34.24;97448.08;1833224;76;38414;-85
2021/05/08 13:38:57;;;;;;;3.37;1.10;;;;;;;14.04;32.53;97440.23;1833234;76;27903;-87
2021/05/08 13:41:33;;;;;;;2.83;1.10;;;;;;;13.88;35.41;97443.41;1833263;76;28523;-84
2021/05/08 13:44:10;;;;;;;2.90;1.00;;;;;;;14.01;35.94;97436.06;1833241;76;28070;-85
2021/05/08 13:46:49;;;;;;;2.30;0.90;;;;;;;14.00;34.91;97446.30;1833187;76;28527;-86
2021/05/08 13:49:27;;;;;;;2.37;1.00;;;;;;;13.97;35.08;97435.97;1780710;79;23092;-85
2021/05/08 13:52:04;;;;;;;2.08;1.10;;;;;;;13.67;33.93;97441.70;1824382;77;22943;-85
2021/05/08 13:54:41;;;;;;;4.75;1.37;;;;;;;13.34;34.31;97430.88;1849000;76;22368;-85
2021/05/08 13:57:21;;;;;;;1.70;1.05;;;;;;;13.13;34.22;97431.23;1824415;77;23070;-86
2021/05/08 13:59:58;;;;;;;1.10;0.88;;;;;;;13.11;35.02;97442.47;1824444;77;22202;-85
2021/05/08 14:02:35;;;;;;;1.47;0.90;;;;;;;13.16;34.59;97439.42;1808793;77;28143;-84
2021/05/08 14:05:14;;;;;;;1.30;0.88;;;;;;;13.11;33.91;97446.90;1824601;77;22740;-89
2021/05/08 14:07:53;;;;;;;2.72;0.88;;;;;;;12.81;33.89;97448.52;1824863;77;22240;-86
2021/05/08 14:10:30;;;;;;;2.33;1.00;;;;;;;12.49;35.02;97441.48;1833997;76;38404;-85
2021/05/08 14:13:07;;;;;;;3.27;1.10;;;;;;;12.59;36.52;97436.25;1839887;77;28598;-85
2021/05/08 14:15:44;;;;;;;2.10;1.00;;;;;;;12.71;36.92;97434.41;1833963;76;28027;-85
2021/05/08 14:18:21;;;;;;;1.90;1.10;;;;;;;12.71;37.48;97447.14;1825158;77;23008;-87
2021/05/08 14:20:58;;;;;;;2.20;0.90;;;;;;;12.75;36.78;97453.02;1833746;76;28064;-86
2021/05/08 14:23:35;;;;;;;1.52;0.90;;;;;;;12.89;35.78;97448.74;1834135;76;28060;-88
2021/05/08 14:26:16;;;;;;;0.75;0.60;;;;;;;12.84;35.61;97452.73;1853151;77;22837;-86
2021/05/08 14:28:53;;;;;;;2.33;1.00;;;;;;;12.64;34.74;97445.48;1835921;77;38271;-86
2021/05/08 14:31:31;;;;;;;2.77;0.80;;;;;;;12.65;35.66;97451.13;1834621;76;28499;-87
2021/05/08 14:34:10;;;;;;;2.27;1.02;;;;;;;12.68;35.38;97460.61;1825311;77;23035;-86
2021/05/08 14:36:46;;;;;;;3.83;1.07;;;;;;;12.53;35.34;97460.57;1834569;76;28042;-87
2021/05/08 14:39:23;;;;;;;1.87;1.00;;;;;;;12.69;36.90;97460.97;1834676;76;28150;-86
2021/05/08 14:42:11;;;;;;;1.70;1.07;;;;;;;12.75;35.51;97455.19;1833149;76;38311;-92
2021/05/08 14:44:50;;;;;;;1.80;0.93;;;;;;;12.78;36.98;97452.27;1829953;77;22176;-84